sensor_id;sensor_type;location;lat;lon;timestamp;P1;durP1;ratioP1;P2;durP2;ratioP2
10904;SDS011;5505;51.450;9.254;2023-03-04T00:00:32;21.73;;;13.50;;
10904;SDS011;5505;51.450;9.254;2023-03-04T00:03:19;21.23;;;13.03;;
10904;SDS011;5505;51.450;9.254;2023-03-04T00:06:06;22.47;;;13.70;;
10904;SDS011;5505;51.450;9.254;2023-03-04T00:08:53;22.30;;;13.73;;
10904;SDS011;5505;51.450;9.254;2023-03-04T00:11:40;21.00;;;12.30;;
10904;SDS011;5505;51.450;9.254;2023-03-04T00:14:26;21.00;;;13.03;;
10904;SDS011;5505;51.450;9.254;2023-03-04T00:17:15;22.07;;;12.97;;
10904;SDS011;5505;51.450;9.254;2023-03-04T00:20:06;18.47;;;12.03;;
10904;SDS011;5505;51.450;9.254;2023-03-04T00:22:54;22.20;;;13.63;;
10904;SDS011;5505;51.450;9.254;2023-03-04T00:25:41;28.67;;;19.57;;
10904;SDS011;5505;51.450;9.254;2023-03-04T00:28:27;18.93;;;13.47;;
10904;SDS011;5505;51.450;9.254;2023-03-04T00:31:14;19.83;;;12.70;;
10904;SDS011;5505;51.450;9.254;2023-03-04T00:34:02;18.00;;;12.53;;
10904;SDS011;5505;51.450;9.254;2023-03-04T00:36:49;19.40;;;13.47;;
10904;SDS011;5505;51.450;9.254;2023-03-04T00:39:36;24.63;;;16.73;;
10904;SDS011;5505;51.450;9.254;2023-03-04T00:42:23;20.87;;;12.00;;
10904;SDS011;5505;51.450;9.254;2023-03-04T00:45:09;22.13;;;13.07;;
10904;SDS011;5505;51.450;9.254;2023-03-04T00:47:56;17.87;;;10.83;;
10904;SDS011;5505;51.450;9.254;2023-03-04T00:50:44;21.00;;;11.30;;
10904;SDS011;5505;51.450;9.254;2023-03-04T00:53:31;17.43;;;11.17;;
10904;SDS011;5505;51.450;9.254;2023-03-04T00:56:18;18.63;;;11.10;;
10904;SDS011;5505;51.450;9.254;2023-03-04T00:59:05;17.13;;;10.80;;
10904;SDS011;5505;51.450;9.254;2023-03-04T01:01:51;20.33;;;10.60;;
10904;SDS011;5505;51.450;9.254;2023-03-04T01:04:38;18.23;;;10.67;;
10904;SDS011;5505;51.450;9.254;2023-03-04T01:07:27;22.17;;;11.20;;
10904;SDS011;5505;51.450;9.254;2023-03-04T01:10:14;15.67;;;10.07;;
10904;SDS011;5505;51.450;9.254;2023-03-04T01:13:01;17.73;;;10.63;;
10904;SDS011;5505;51.450;9.254;2023-03-04T01:15:48;17.97;;;10.07;;
10904;SDS011;5505;51.450;9.254;2023-03-04T01:18:34;17.07;;;9.87;;
10904;SDS011;5505;51.450;9.254;2023-03-04T01:21:21;21.63;;;10.57;;
10904;SDS011;5505;51.450;9.254;2023-03-04T01:24:09;17.07;;;10.30;;
10904;SDS011;5505;51.450;9.254;2023-03-04T01:26:56;14.77;;;9.40;;
10904;SDS011;5505;51.450;9.254;2023-03-04T01:29:43;17.00;;;9.70;;
10904;SDS011;5505;51.450;9.254;2023-03-04T01:32:30;16.73;;;9.60;;
10904;SDS011;5505;51.450;9.254;2023-03-04T01:35:17;18.53;;;9.87;;
10904;SDS011;5505;51.450;9.254;2023-03-04T01:38:03;12.23;;;8.70;;
10904;SDS011;5505;51.450;9.254;2023-03-04T01:40:52;17.00;;;9.80;;
10904;SDS011;5505;51.450;9.254;2023-03-04T01:43:39;20.67;;;10.13;;
10904;SDS011;5505;51.450;9.254;2023-03-04T01:46:26;15.50;;;8.93;;
10904;SDS011;5505;51.450;9.254;2023-03-04T01:49:13;19.97;;;10.17;;
10904;SDS011;5505;51.450;9.254;2023-03-04T01:52:01;19.80;;;9.60;;
10904;SDS011;5505;51.450;9.254;2023-03-04T01:54:48;19.63;;;9.30;;
10904;SDS011;5505;51.450;9.254;2023-03-04T01:57:36;19.30;;;9.47;;
10904;SDS011;5505;51.450;9.254;2023-03-04T02:00:26;16.07;;;9.03;;
10904;SDS011;5505;51.450;9.254;2023-03-04T02:03:15;18.80;;;8.53;;
10904;SDS011;5505;51.450;9.254;2023-03-04T02:06:04;17.10;;;7.23;;
10904;SDS011;5505;51.450;9.254;2023-03-04T02:08:51;13.13;;;7.80;;
10904;SDS011;5505;51.450;9.254;2023-03-04T02:11:38;19.93;;;7.83;;
10904;SDS011;5505;51.450;9.254;2023-03-04T02:14:27;18.13;;;8.00;;
10904;SDS011;5505;51.450;9.254;2023-03-04T02:17:14;17.57;;;7.97;;
10904;SDS011;5505;51.450;9.254;2023-03-04T02:20:02;16.70;;;8.43;;
10904;SDS011;5505;51.450;9.254;2023-03-04T02:22:58;15.93;;;7.73;;
10904;SDS011;5505;51.450;9.254;2023-03-04T02:25:49;19.47;;;7.70;;
10904;SDS011;5505;51.450;9.254;2023-03-04T02:28:46;14.03;;;7.00;;
10904;SDS011;5505;51.450;9.254;2023-03-04T02:31:35;16.50;;;6.97;;
10904;SDS011;5505;51.450;9.254;2023-03-04T02:34:24;17.90;;;6.93;;
10904;SDS011;5505;51.450;9.254;2023-03-04T02:37:15;12.60;;;6.70;;
10904;SDS011;5505;51.450;9.254;2023-03-04T02:40:03;13.20;;;7.10;;
10904;SDS011;5505;51.450;9.254;2023-03-04T02:42:51;16.90;;;6.97;;
10904;SDS011;5505;51.450;9.254;2023-03-04T02:45:41;13.37;;;6.93;;
10904;SDS011;5505;51.450;9.254;2023-03-04T02:48:29;18.27;;;6.47;;
10904;SDS011;5505;51.450;9.254;2023-03-04T02:51:16;17.73;;;6.53;;
10904;SDS011;5505;51.450;9.254;2023-03-04T02:54:03;16.43;;;7.17;;
10904;SDS011;5505;51.450;9.254;2023-03-04T02:56:51;16.03;;;6.70;;
10904;SDS011;5505;51.450;9.254;2023-03-04T02:59:39;16.13;;;7.47;;
10904;SDS011;5505;51.450;9.254;2023-03-04T03:02:28;17.97;;;7.07;;
10904;SDS011;5505;51.450;9.254;2023-03-04T03:05:15;20.93;;;6.87;;
10904;SDS011;5505;51.450;9.254;2023-03-04T03:08:03;14.10;;;6.83;;
10904;SDS011;5505;51.450;9.254;2023-03-04T03:10:50;17.27;;;7.03;;
10904;SDS011;5505;51.450;9.254;2023-03-04T03:13:37;17.17;;;7.53;;
10904;SDS011;5505;51.450;9.254;2023-03-04T03:16:24;17.30;;;6.67;;
10904;SDS011;5505;51.450;9.254;2023-03-04T03:19:12;20.23;;;6.87;;
10904;SDS011;5505;51.450;9.254;2023-03-04T03:21:59;16.40;;;6.53;;
10904;SDS011;5505;51.450;9.254;2023-03-04T03:24:45;18.90;;;6.43;;
10904;SDS011;5505;51.450;9.254;2023-03-04T03:27:32;19.93;;;6.47;;
10904;SDS011;5505;51.450;9.254;2023-03-04T03:30:19;15.83;;;5.63;;
10904;SDS011;5505;51.450;9.254;2023-03-04T03:33:06;15.43;;;5.27;;
10904;SDS011;5505;51.450;9.254;2023-03-04T03:35:54;15.93;;;5.00;;
10904;SDS011;5505;51.450;9.254;2023-03-04T03:38:41;13.37;;;5.17;;
10904;SDS011;5505;51.450;9.254;2023-03-04T03:41:28;15.83;;;5.57;;
10904;SDS011;5505;51.450;9.254;2023-03-04T03:44:15;13.00;;;5.40;;
10904;SDS011;5505;51.450;9.254;2023-03-04T03:47:02;16.17;;;5.27;;
10904;SDS011;5505;51.450;9.254;2023-03-04T03:49:49;15.50;;;5.27;;
10904;SDS011;5505;51.450;9.254;2023-03-04T03:52:37;12.93;;;4.87;;
10904;SDS011;5505;51.450;9.254;2023-03-04T03:55:23;13.83;;;5.30;;
10904;SDS011;5505;51.450;9.254;2023-03-04T03:58:10;13.20;;;4.80;;
10904;SDS011;5505;51.450;9.254;2023-03-04T04:00:58;10.03;;;4.90;;
10904;SDS011;5505;51.450;9.254;2023-03-04T04:03:45;15.73;;;5.20;;
10904;SDS011;5505;51.450;9.254;2023-03-04T04:06:31;13.30;;;5.00;;
10904;SDS011;5505;51.450;9.254;2023-03-04T04:09:20;13.10;;;5.40;;
10904;SDS011;5505;51.450;9.254;2023-03-04T04:12:06;15.70;;;5.40;;
10904;SDS011;5505;51.450;9.254;2023-03-04T04:14:53;13.20;;;4.90;;
10904;SDS011;5505;51.450;9.254;2023-03-04T04:17:40;17.27;;;4.90;;
10904;SDS011;5505;51.450;9.254;2023-03-04T04:20:27;14.70;;;5.30;;
10904;SDS011;5505;51.450;9.254;2023-03-04T04:23:14;16.03;;;5.30;;
10904;SDS011;5505;51.450;9.254;2023-03-04T04:26:02;12.93;;;4.63;;
10904;SDS011;5505;51.450;9.254;2023-03-04T04:28:48;14.13;;;4.73;;
10904;SDS011;5505;51.450;9.254;2023-03-04T04:31:35;16.47;;;4.83;;
10904;SDS011;5505;51.450;9.254;2023-03-04T04:34:22;17.63;;;4.57;;
10904;SDS011;5505;51.450;9.254;2023-03-04T04:37:09;14.33;;;4.40;;
10904;SDS011;5505;51.450;9.254;2023-03-04T04:39:56;17.37;;;4.93;;
10904;SDS011;5505;51.450;9.254;2023-03-04T04:42:44;20.57;;;4.57;;
10904;SDS011;5505;51.450;9.254;2023-03-04T04:45:30;13.87;;;4.57;;
10904;SDS011;5505;51.450;9.254;2023-03-04T04:48:17;12.20;;;4.53;;
10904;SDS011;5505;51.450;9.254;2023-03-04T04:51:04;10.93;;;4.37;;
10904;SDS011;5505;51.450;9.254;2023-03-04T04:53:51;15.90;;;4.40;;
10904;SDS011;5505;51.450;9.254;2023-03-04T04:56:38;13.37;;;4.90;;
10904;SDS011;5505;51.450;9.254;2023-03-04T04:59:26;13.67;;;4.83;;
10904;SDS011;5505;51.450;9.254;2023-03-04T05:02:13;13.70;;;5.03;;
10904;SDS011;5505;51.450;9.254;2023-03-04T05:05:00;11.97;;;4.37;;
10904;SDS011;5505;51.450;9.254;2023-03-04T05:07:46;16.40;;;4.43;;
10904;SDS011;5505;51.450;9.254;2023-03-04T05:10:33;9.87;;;4.40;;
10904;SDS011;5505;51.450;9.254;2023-03-04T05:13:20;15.27;;;4.17;;
10904;SDS011;5505;51.450;9.254;2023-03-04T05:16:09;15.47;;;4.43;;
10904;SDS011;5505;51.450;9.254;2023-03-04T05:18:55;12.43;;;4.03;;
10904;SDS011;5505;51.450;9.254;2023-03-04T05:21:42;12.33;;;4.30;;
10904;SDS011;5505;51.450;9.254;2023-03-04T05:24:29;16.47;;;4.77;;
10904;SDS011;5505;51.450;9.254;2023-03-04T05:27:16;16.37;;;4.77;;
10904;SDS011;5505;51.450;9.254;2023-03-04T05:30:03;15.07;;;4.30;;
10904;SDS011;5505;51.450;9.254;2023-03-04T05:32:52;13.17;;;4.87;;
10904;SDS011;5505;51.450;9.254;2023-03-04T05:35:39;13.00;;;4.83;;
10904;SDS011;5505;51.450;9.254;2023-03-04T05:38:27;14.13;;;5.13;;
10904;SDS011;5505;51.450;9.254;2023-03-04T05:41:14;17.57;;;4.43;;
10904;SDS011;5505;51.450;9.254;2023-03-04T05:44:03;12.17;;;4.73;;
10904;SDS011;5505;51.450;9.254;2023-03-04T05:46:50;19.80;;;5.40;;
10904;SDS011;5505;51.450;9.254;2023-03-04T05:49:38;14.43;;;4.70;;
10904;SDS011;5505;51.450;9.254;2023-03-04T05:52:25;14.53;;;4.43;;
10904;SDS011;5505;51.450;9.254;2023-03-04T05:55:11;13.27;;;4.47;;
10904;SDS011;5505;51.450;9.254;2023-03-04T05:57:58;13.80;;;4.53;;
10904;SDS011;5505;51.450;9.254;2023-03-04T06:00:45;10.77;;;4.33;;
10904;SDS011;5505;51.450;9.254;2023-03-04T06:03:32;11.80;;;3.93;;
10904;SDS011;5505;51.450;9.254;2023-03-04T06:06:20;8.70;;;3.90;;
10904;SDS011;5505;51.450;9.254;2023-03-04T06:09:07;12.30;;;3.93;;
10904;SDS011;5505;51.450;9.254;2023-03-04T06:11:54;11.37;;;3.80;;
10904;SDS011;5505;51.450;9.254;2023-03-04T06:14:41;15.60;;;4.00;;
10904;SDS011;5505;51.450;9.254;2023-03-04T06:17:28;12.47;;;4.20;;
10904;SDS011;5505;51.450;9.254;2023-03-04T06:20:15;7.90;;;3.50;;
10904;SDS011;5505;51.450;9.254;2023-03-04T06:23:03;13.80;;;3.50;;
10904;SDS011;5505;51.450;9.254;2023-03-04T06:25:50;11.20;;;3.43;;
10904;SDS011;5505;51.450;9.254;2023-03-04T06:28:38;12.47;;;3.53;;
10904;SDS011;5505;51.450;9.254;2023-03-04T06:31:24;12.23;;;3.90;;
10904;SDS011;5505;51.450;9.254;2023-03-04T06:34:11;12.97;;;3.43;;
10904;SDS011;5505;51.450;9.254;2023-03-04T06:36:58;14.97;;;3.50;;
10904;SDS011;5505;51.450;9.254;2023-03-04T06:39:46;9.53;;;3.30;;
10904;SDS011;5505;51.450;9.254;2023-03-04T06:42:33;15.13;;;3.57;;
10904;SDS011;5505;51.450;9.254;2023-03-04T06:45:20;11.53;;;4.17;;
10904;SDS011;5505;51.450;9.254;2023-03-04T06:48:07;15.90;;;3.90;;
10904;SDS011;5505;51.450;9.254;2023-03-04T06:50:54;13.10;;;3.13;;
10904;SDS011;5505;51.450;9.254;2023-03-04T06:53:41;9.93;;;2.90;;
10904;SDS011;5505;51.450;9.254;2023-03-04T06:56:30;11.43;;;2.83;;
10904;SDS011;5505;51.450;9.254;2023-03-04T06:59:17;16.27;;;3.73;;
10904;SDS011;5505;51.450;9.254;2023-03-04T07:02:03;12.77;;;3.27;;
10904;SDS011;5505;51.450;9.254;2023-03-04T07:04:50;10.03;;;2.70;;
10904;SDS011;5505;51.450;9.254;2023-03-04T07:07:37;9.67;;;2.90;;
10904;SDS011;5505;51.450;9.254;2023-03-04T07:10:24;13.60;;;3.33;;
10904;SDS011;5505;51.450;9.254;2023-03-04T07:13:12;14.57;;;3.73;;
10904;SDS011;5505;51.450;9.254;2023-03-04T07:15:59;12.40;;;2.73;;
10904;SDS011;5505;51.450;9.254;2023-03-04T07:18:46;8.30;;;2.87;;
10904;SDS011;5505;51.450;9.254;2023-03-04T07:21:33;8.43;;;2.80;;
10904;SDS011;5505;51.450;9.254;2023-03-04T07:24:19;10.47;;;3.27;;
10904;SDS011;5505;51.450;9.254;2023-03-04T07:27:06;11.37;;;3.30;;
10904;SDS011;5505;51.450;9.254;2023-03-04T07:29:54;7.77;;;2.67;;
10904;SDS011;5505;51.450;9.254;2023-03-04T07:32:41;9.63;;;3.17;;
10904;SDS011;5505;51.450;9.254;2023-03-04T07:35:28;10.40;;;3.40;;
10904;SDS011;5505;51.450;9.254;2023-03-04T07:38:14;8.13;;;3.10;;
10904;SDS011;5505;51.450;9.254;2023-03-04T07:41:01;10.13;;;3.30;;
10904;SDS011;5505;51.450;9.254;2023-03-04T07:43:48;9.60;;;3.10;;
10904;SDS011;5505;51.450;9.254;2023-03-04T07:46:37;12.43;;;3.47;;
10904;SDS011;5505;51.450;9.254;2023-03-04T07:49:24;8.23;;;4.00;;
10904;SDS011;5505;51.450;9.254;2023-03-04T07:52:11;8.37;;;3.20;;
10904;SDS011;5505;51.450;9.254;2023-03-04T07:54:58;8.07;;;3.47;;
10904;SDS011;5505;51.450;9.254;2023-03-04T07:57:45;8.57;;;3.03;;
10904;SDS011;5505;51.450;9.254;2023-03-04T08:00:32;8.50;;;3.73;;
10904;SDS011;5505;51.450;9.254;2023-03-04T08:03:21;11.10;;;4.17;;
10904;SDS011;5505;51.450;9.254;2023-03-04T08:06:08;8.33;;;3.70;;
10904;SDS011;5505;51.450;9.254;2023-03-04T08:08:57;5.77;;;3.33;;
10904;SDS011;5505;51.450;9.254;2023-03-04T08:11:44;9.97;;;4.17;;
10904;SDS011;5505;51.450;9.254;2023-03-04T08:14:31;9.50;;;3.40;;
10904;SDS011;5505;51.450;9.254;2023-03-04T08:17:18;7.97;;;3.33;;
10904;SDS011;5505;51.450;9.254;2023-03-04T08:20:08;10.00;;;3.20;;
10904;SDS011;5505;51.450;9.254;2023-03-04T08:22:56;6.60;;;2.90;;
10904;SDS011;5505;51.450;9.254;2023-03-04T08:25:43;8.73;;;2.63;;
10904;SDS011;5505;51.450;9.254;2023-03-04T08:28:30;6.67;;;2.70;;
10904;SDS011;5505;51.450;9.254;2023-03-04T08:31:17;10.30;;;3.03;;
10904;SDS011;5505;51.450;9.254;2023-03-04T08:34:04;11.07;;;3.17;;
10904;SDS011;5505;51.450;9.254;2023-03-04T08:36:53;7.33;;;2.63;;
10904;SDS011;5505;51.450;9.254;2023-03-04T08:39:40;8.27;;;2.50;;
10904;SDS011;5505;51.450;9.254;2023-03-04T08:42:26;11.03;;;3.00;;
10904;SDS011;5505;51.450;9.254;2023-03-04T08:45:14;9.67;;;2.90;;
10904;SDS011;5505;51.450;9.254;2023-03-04T08:48:01;11.40;;;2.40;;
10904;SDS011;5505;51.450;9.254;2023-03-04T08:50:48;6.97;;;2.23;;
10904;SDS011;5505;51.450;9.254;2023-03-04T08:53:37;6.43;;;2.27;;
10904;SDS011;5505;51.450;9.254;2023-03-04T08:56:24;8.03;;;2.30;;
10904;SDS011;5505;51.450;9.254;2023-03-04T08:59:11;8.13;;;3.90;;
10904;SDS011;5505;51.450;9.254;2023-03-04T09:01:58;8.20;;;3.40;;
10904;SDS011;5505;51.450;9.254;2023-03-04T09:04:45;4.33;;;2.00;;
10904;SDS011;5505;51.450;9.254;2023-03-04T09:07:32;5.23;;;2.30;;
10904;SDS011;5505;51.450;9.254;2023-03-04T09:10:20;10.67;;;3.50;;
10904;SDS011;5505;51.450;9.254;2023-03-04T09:13:07;7.07;;;2.60;;
10904;SDS011;5505;51.450;9.254;2023-03-04T09:15:55;7.03;;;2.40;;
10904;SDS011;5505;51.450;9.254;2023-03-04T09:18:42;5.43;;;1.60;;
10904;SDS011;5505;51.450;9.254;2023-03-04T09:21:29;4.13;;;2.17;;
10904;SDS011;5505;51.450;9.254;2023-03-04T09:24:16;3.37;;;1.83;;
10904;SDS011;5505;51.450;9.254;2023-03-04T09:27:04;5.07;;;2.30;;
10904;SDS011;5505;51.450;9.254;2023-03-04T09:29:51;6.37;;;1.83;;
10904;SDS011;5505;51.450;9.254;2023-03-04T09:32:37;6.07;;;1.70;;
10904;SDS011;5505;51.450;9.254;2023-03-04T09:35:25;2.57;;;2.00;;
10904;SDS011;5505;51.450;9.254;2023-03-04T09:38:13;3.87;;;1.67;;
10904;SDS011;5505;51.450;9.254;2023-03-04T09:41:00;5.30;;;2.10;;
10904;SDS011;5505;51.450;9.254;2023-03-04T09:43:53;6.80;;;2.57;;
10904;SDS011;5505;51.450;9.254;2023-03-04T09:46:41;5.10;;;2.10;;
10904;SDS011;5505;51.450;9.254;2023-03-04T09:49:30;6.27;;;2.50;;
10904;SDS011;5505;51.450;9.254;2023-03-04T09:52:18;7.30;;;2.20;;
10904;SDS011;5505;51.450;9.254;2023-03-04T09:55:17;6.17;;;2.33;;
10904;SDS011;5505;51.450;9.254;2023-03-04T09:58:24;5.53;;;2.10;;
10904;SDS011;5505;51.450;9.254;2023-03-04T10:01:21;5.73;;;2.10;;
10904;SDS011;5505;51.450;9.254;2023-03-04T10:04:12;6.10;;;2.70;;
10904;SDS011;5505;51.450;9.254;2023-03-04T10:07:02;3.33;;;1.87;;
10904;SDS011;5505;51.450;9.254;2023-03-04T10:09:50;4.27;;;1.90;;
10904;SDS011;5505;51.450;9.254;2023-03-04T10:12:40;2.97;;;1.73;;
10904;SDS011;5505;51.450;9.254;2023-03-04T10:15:33;4.50;;;1.90;;
10904;SDS011;5505;51.450;9.254;2023-03-04T10:18:24;3.53;;;1.87;;
10904;SDS011;5505;51.450;9.254;2023-03-04T10:21:19;6.20;;;1.80;;
10904;SDS011;5505;51.450;9.254;2023-03-04T10:24:10;5.07;;;1.80;;
10904;SDS011;5505;51.450;9.254;2023-03-04T10:27:00;2.87;;;1.40;;
10904;SDS011;5505;51.450;9.254;2023-03-04T10:29:48;3.50;;;1.43;;
10904;SDS011;5505;51.450;9.254;2023-03-04T10:32:35;2.20;;;1.60;;
10904;SDS011;5505;51.450;9.254;2023-03-04T10:35:24;4.00;;;1.50;;
10904;SDS011;5505;51.450;9.254;2023-03-04T10:38:18;4.03;;;1.70;;
10904;SDS011;5505;51.450;9.254;2023-03-04T10:41:10;1.93;;;1.40;;
10904;SDS011;5505;51.450;9.254;2023-03-04T10:44:00;4.80;;;2.50;;
10904;SDS011;5505;51.450;9.254;2023-03-04T10:46:49;3.10;;;1.60;;
10904;SDS011;5505;51.450;9.254;2023-03-04T10:49:48;2.47;;;1.53;;
10904;SDS011;5505;51.450;9.254;2023-03-04T10:52:38;4.80;;;3.23;;
10904;SDS011;5505;51.450;9.254;2023-03-04T10:55:40;2.57;;;1.30;;
10904;SDS011;5505;51.450;9.254;2023-03-04T10:58:28;3.20;;;1.57;;
10904;SDS011;5505;51.450;9.254;2023-03-04T11:01:15;3.50;;;1.23;;
10904;SDS011;5505;51.450;9.254;2023-03-04T11:04:14;3.57;;;1.40;;
10904;SDS011;5505;51.450;9.254;2023-03-04T11:07:06;3.07;;;1.50;;
10904;SDS011;5505;51.450;9.254;2023-03-04T11:09:56;2.70;;;1.20;;
10904;SDS011;5505;51.450;9.254;2023-03-04T11:12:54;2.93;;;1.37;;
10904;SDS011;5505;51.450;9.254;2023-03-04T11:15:49;2.87;;;1.67;;
10904;SDS011;5505;51.450;9.254;2023-03-04T11:18:37;2.60;;;1.53;;
10904;SDS011;5505;51.450;9.254;2023-03-04T11:21:28;4.90;;;2.20;;
10904;SDS011;5505;51.450;9.254;2023-03-04T11:24:20;3.20;;;2.53;;
10904;SDS011;5505;51.450;9.254;2023-03-04T11:27:14;4.40;;;3.43;;
10904;SDS011;5505;51.450;9.254;2023-03-04T11:30:24;5.50;;;2.97;;
10904;SDS011;5505;51.450;9.254;2023-03-04T11:33:23;2.63;;;1.90;;
10904;SDS011;5505;51.450;9.254;2023-03-04T11:36:22;2.13;;;1.93;;
10904;SDS011;5505;51.450;9.254;2023-03-04T11:39:16;2.17;;;1.60;;
10904;SDS011;5505;51.450;9.254;2023-03-04T11:42:12;3.03;;;2.23;;
10904;SDS011;5505;51.450;9.254;2023-03-04T11:45:10;3.13;;;1.47;;
10904;SDS011;5505;51.450;9.254;2023-03-04T11:47:59;4.87;;;3.20;;
10904;SDS011;5505;51.450;9.254;2023-03-04T11:50:53;2.13;;;1.53;;
10904;SDS011;5505;51.450;9.254;2023-03-04T11:53:43;3.23;;;1.50;;
10904;SDS011;5505;51.450;9.254;2023-03-04T11:56:48;3.77;;;1.70;;
10904;SDS011;5505;51.450;9.254;2023-03-04T12:02:52;2.23;;;1.17;;
10904;SDS011;5505;51.450;9.254;2023-03-04T12:05:51;3.57;;;1.33;;
10904;SDS011;5505;51.450;9.254;2023-03-04T12:08:50;1.37;;;1.27;;
10904;SDS011;5505;51.450;9.254;2023-03-04T12:11:48;1.40;;;1.00;;
10904;SDS011;5505;51.450;9.254;2023-03-04T12:14:41;1.93;;;1.40;;
10904;SDS011;5505;51.450;9.254;2023-03-04T12:17:37;1.10;;;1.00;;
10904;SDS011;5505;51.450;9.254;2023-03-04T12:20:39;3.13;;;1.60;;
10904;SDS011;5505;51.450;9.254;2023-03-04T12:23:48;2.03;;;1.17;;
10904;SDS011;5505;51.450;9.254;2023-03-04T12:26:54;1.67;;;1.27;;
10904;SDS011;5505;51.450;9.254;2023-03-04T12:29:47;3.83;;;2.13;;
10904;SDS011;5505;51.450;9.254;2023-03-04T12:32:43;5.27;;;2.10;;
10904;SDS011;5505;51.450;9.254;2023-03-04T12:35:40;1.40;;;1.30;;
10904;SDS011;5505;51.450;9.254;2023-03-04T12:41:49;2.57;;;2.27;;
10904;SDS011;5505;51.450;9.254;2023-03-04T12:44:52;7.70;;;5.30;;
10904;SDS011;5505;51.450;9.254;2023-03-04T12:47:47;3.87;;;2.10;;
10904;SDS011;5505;51.450;9.254;2023-03-04T12:50:44;2.27;;;1.50;;
10904;SDS011;5505;51.450;9.254;2023-03-04T12:53:39;5.73;;;2.93;;
10904;SDS011;5505;51.450;9.254;2023-03-04T12:56:36;1.93;;;1.80;;
10904;SDS011;5505;51.450;9.254;2023-03-04T12:59:28;2.87;;;1.80;;
10904;SDS011;5505;51.450;9.254;2023-03-04T13:02:36;4.27;;;1.67;;
10904;SDS011;5505;51.450;9.254;2023-03-04T13:05:41;3.97;;;2.00;;
10904;SDS011;5505;51.450;9.254;2023-03-04T13:08:42;2.20;;;1.40;;
10904;SDS011;5505;51.450;9.254;2023-03-04T13:11:50;3.33;;;2.00;;
10904;SDS011;5505;51.450;9.254;2023-03-04T13:14:38;3.10;;;1.73;;
10904;SDS011;5505;51.450;9.254;2023-03-04T13:17:38;3.93;;;2.33;;
10904;SDS011;5505;51.450;9.254;2023-03-04T13:20:36;2.70;;;1.70;;
10904;SDS011;5505;51.450;9.254;2023-03-04T13:23:27;3.30;;;2.03;;
10904;SDS011;5505;51.450;9.254;2023-03-04T13:26:16;3.07;;;1.60;;
10904;SDS011;5505;51.450;9.254;2023-03-04T13:29:29;2.53;;;1.60;;
10904;SDS011;5505;51.450;9.254;2023-03-04T13:32:33;3.77;;;1.63;;
10904;SDS011;5505;51.450;9.254;2023-03-04T13:38:36;2.97;;;1.67;;
10904;SDS011;5505;51.450;9.254;2023-03-04T13:41:28;2.70;;;1.70;;
10904;SDS011;5505;51.450;9.254;2023-03-04T13:47:48;7.37;;;2.53;;
10904;SDS011;5505;51.450;9.254;2023-03-04T13:50:44;3.10;;;1.83;;
10904;SDS011;5505;51.450;9.254;2023-03-04T13:53:40;5.17;;;1.90;;
10904;SDS011;5505;51.450;9.254;2023-03-04T13:56:29;2.80;;;2.10;;
10904;SDS011;5505;51.450;9.254;2023-03-04T13:59:20;6.77;;;3.87;;
10904;SDS011;5505;51.450;9.254;2023-03-04T14:02:13;5.23;;;2.90;;
10904;SDS011;5505;51.450;9.254;2023-03-04T14:05:04;4.67;;;2.70;;
10904;SDS011;5505;51.450;9.254;2023-03-04T14:07:51;7.63;;;4.37;;
10904;SDS011;5505;51.450;9.254;2023-03-04T14:10:39;4.40;;;2.27;;
10904;SDS011;5505;51.450;9.254;2023-03-04T14:13:26;8.47;;;4.30;;
10904;SDS011;5505;51.450;9.254;2023-03-04T14:16:17;6.53;;;1.77;;
10904;SDS011;5505;51.450;9.254;2023-03-04T14:19:05;4.53;;;1.90;;
10904;SDS011;5505;51.450;9.254;2023-03-04T14:21:59;4.13;;;2.07;;
10904;SDS011;5505;51.450;9.254;2023-03-04T14:24:54;5.33;;;1.93;;
10904;SDS011;5505;51.450;9.254;2023-03-04T14:27:42;8.00;;;2.13;;
10904;SDS011;5505;51.450;9.254;2023-03-04T14:30:30;6.07;;;2.33;;
10904;SDS011;5505;51.450;9.254;2023-03-04T14:33:18;5.17;;;1.93;;
10904;SDS011;5505;51.450;9.254;2023-03-04T14:36:12;5.00;;;1.80;;
10904;SDS011;5505;51.450;9.254;2023-03-04T14:39:03;7.10;;;1.93;;
10904;SDS011;5505;51.450;9.254;2023-03-04T14:41:52;9.23;;;2.10;;
10904;SDS011;5505;51.450;9.254;2023-03-04T14:44:46;6.83;;;2.40;;
10904;SDS011;5505;51.450;9.254;2023-03-04T14:47:36;6.43;;;2.47;;
10904;SDS011;5505;51.450;9.254;2023-03-04T14:50:25;8.20;;;2.20;;
10904;SDS011;5505;51.450;9.254;2023-03-04T14:53:13;4.10;;;2.23;;
10904;SDS011;5505;51.450;9.254;2023-03-04T14:56:01;4.43;;;1.97;;
10904;SDS011;5505;51.450;9.254;2023-03-04T14:58:51;5.60;;;2.00;;
10904;SDS011;5505;51.450;9.254;2023-03-04T15:01:40;4.63;;;1.80;;
10904;SDS011;5505;51.450;9.254;2023-03-04T15:04:28;5.23;;;2.27;;
10904;SDS011;5505;51.450;9.254;2023-03-04T15:07:16;6.40;;;1.93;;
10904;SDS011;5505;51.450;9.254;2023-03-04T15:10:07;4.33;;;1.70;;
10904;SDS011;5505;51.450;9.254;2023-03-04T15:12:57;4.90;;;2.20;;
10904;SDS011;5505;51.450;9.254;2023-03-04T15:15:46;6.47;;;2.20;;
10904;SDS011;5505;51.450;9.254;2023-03-04T15:18:34;8.17;;;1.70;;
10904;SDS011;5505;51.450;9.254;2023-03-04T15:21:32;7.23;;;2.40;;
10904;SDS011;5505;51.450;9.254;2023-03-04T15:24:20;5.10;;;2.07;;
10904;SDS011;5505;51.450;9.254;2023-03-04T15:27:07;4.30;;;1.97;;
10904;SDS011;5505;51.450;9.254;2023-03-04T15:29:57;6.67;;;2.13;;
10904;SDS011;5505;51.450;9.254;2023-03-04T15:32:46;7.10;;;2.30;;
10904;SDS011;5505;51.450;9.254;2023-03-04T15:35:34;7.60;;;2.07;;
10904;SDS011;5505;51.450;9.254;2023-03-04T15:38:21;4.80;;;1.93;;
10904;SDS011;5505;51.450;9.254;2023-03-04T15:41:09;7.20;;;2.43;;
10904;SDS011;5505;51.450;9.254;2023-03-04T15:43:57;5.00;;;2.17;;
10904;SDS011;5505;51.450;9.254;2023-03-04T15:46:44;6.03;;;2.40;;
10904;SDS011;5505;51.450;9.254;2023-03-04T15:49:30;6.60;;;2.50;;
10904;SDS011;5505;51.450;9.254;2023-03-04T15:52:19;8.13;;;2.30;;
10904;SDS011;5505;51.450;9.254;2023-03-04T15:55:08;4.97;;;2.17;;
10904;SDS011;5505;51.450;9.254;2023-03-04T15:57:59;5.83;;;1.90;;
10904;SDS011;5505;51.450;9.254;2023-03-04T16:00:46;3.63;;;1.60;;
10904;SDS011;5505;51.450;9.254;2023-03-04T16:03:32;3.17;;;1.00;;
10904;SDS011;5505;51.450;9.254;2023-03-04T16:06:19;6.20;;;2.00;;
10904;SDS011;5505;51.450;9.254;2023-03-04T16:09:10;3.57;;;1.10;;
10904;SDS011;5505;51.450;9.254;2023-03-04T16:12:00;5.63;;;1.50;;
10904;SDS011;5505;51.450;9.254;2023-03-04T16:14:47;4.07;;;1.47;;
10904;SDS011;5505;51.450;9.254;2023-03-04T16:17:35;3.77;;;1.43;;
10904;SDS011;5505;51.450;9.254;2023-03-04T16:20:28;5.13;;;1.17;;
10904;SDS011;5505;51.450;9.254;2023-03-04T16:23:16;7.07;;;1.40;;
10904;SDS011;5505;51.450;9.254;2023-03-04T16:26:09;4.43;;;1.13;;
10904;SDS011;5505;51.450;9.254;2023-03-04T16:28:58;5.03;;;1.03;;
10904;SDS011;5505;51.450;9.254;2023-03-04T16:31:46;5.47;;;1.10;;
10904;SDS011;5505;51.450;9.254;2023-03-04T16:34:33;5.20;;;1.53;;
10904;SDS011;5505;51.450;9.254;2023-03-04T16:37:19;7.03;;;1.73;;
10904;SDS011;5505;51.450;9.254;2023-03-04T16:40:08;6.43;;;1.97;;
10904;SDS011;5505;51.450;9.254;2023-03-04T16:42:59;5.57;;;1.20;;
10904;SDS011;5505;51.450;9.254;2023-03-04T16:45:45;7.43;;;1.47;;
10904;SDS011;5505;51.450;9.254;2023-03-04T16:48:32;7.10;;;1.17;;
10904;SDS011;5505;51.450;9.254;2023-03-04T16:51:20;5.93;;;1.70;;
10904;SDS011;5505;51.450;9.254;2023-03-04T16:54:08;6.50;;;1.60;;
10904;SDS011;5505;51.450;9.254;2023-03-04T16:56:59;7.00;;;2.10;;
10904;SDS011;5505;51.450;9.254;2023-03-04T16:59:48;10.87;;;5.17;;
10904;SDS011;5505;51.450;9.254;2023-03-04T17:02:35;9.33;;;2.20;;
10904;SDS011;5505;51.450;9.254;2023-03-04T17:05:22;4.03;;;2.00;;
10904;SDS011;5505;51.450;9.254;2023-03-04T17:08:11;3.57;;;1.67;;
10904;SDS011;5505;51.450;9.254;2023-03-04T17:10:58;6.40;;;1.93;;
10904;SDS011;5505;51.450;9.254;2023-03-04T17:13:45;9.70;;;3.03;;
10904;SDS011;5505;51.450;9.254;2023-03-04T17:16:34;13.43;;;6.97;;
10904;SDS011;5505;51.450;9.254;2023-03-04T17:19:21;8.27;;;2.80;;